sensor_id;sensor_type;location;lat;lon;timestamp;P1;durP1;ratioP1;P2;durP2;ratioP2
62724;SDS011;49026;52.600;4.694;2023-05-10T00:01:31;298.08;;;30.80;;
62724;SDS011;49026;52.600;4.694;2023-05-10T00:03:56;258.20;;;27.55;;
62724;SDS011;49026;52.600;4.694;2023-05-10T00:06:21;353.48;;;27.25;;
62724;SDS011;49026;52.600;4.694;2023-05-10T00:08:49;275.48;;;19.55;;
62724;SDS011;49026;52.600;4.694;2023-05-10T00:11:16;233.30;;;18.52;;
62724;SDS011;49026;52.600;4.694;2023-05-10T00:13:42;270.23;;;15.70;;
62724;SDS011;49026;52.600;4.694;2023-05-10T00:16:07;227.73;;;17.17;;
62724;SDS011;49026;52.600;4.694;2023-05-10T00:18:32;182.93;;;14.02;;
62724;SDS011;49026;52.600;4.694;2023-05-10T00:20:58;292.00;;;18.70;;
62724;SDS011;49026;52.600;4.694;2023-05-10T00:23:23;202.02;;;13.43;;
62724;SDS011;49026;52.600;4.694;2023-05-10T00:25:51;242.50;;;12.35;;
62724;SDS011;49026;52.600;4.694;2023-05-10T00:28:19;144.27;;;12.15;;
62724;SDS011;49026;52.600;4.694;2023-05-10T00:30:44;147.05;;;11.07;;
62724;SDS011;49026;52.600;4.694;2023-05-10T00:33:10;186.93;;;12.43;;
62724;SDS011;49026;52.600;4.694;2023-05-10T00:35:36;190.02;;;11.52;;
62724;SDS011;49026;52.600;4.694;2023-05-10T00:38:02;133.15;;;11.10;;
62724;SDS011;49026;52.600;4.694;2023-05-10T00:40:28;142.73;;;9.82;;
62724;SDS011;49026;52.600;4.694;2023-05-10T00:42:57;164.88;;;10.93;;
62724;SDS011;49026;52.600;4.694;2023-05-10T00:45:23;162.27;;;10.80;;
62724;SDS011;49026;52.600;4.694;2023-05-10T00:47:49;162.77;;;11.07;;
62724;SDS011;49026;52.600;4.694;2023-05-10T00:50:20;195.10;;;13.00;;
62724;SDS011;49026;52.600;4.694;2023-05-10T00:52:46;210.43;;;14.85;;
62724;SDS011;49026;52.600;4.694;2023-05-10T00:55:12;143.15;;;10.82;;
62724;SDS011;49026;52.600;4.694;2023-05-10T00:57:38;229.45;;;12.48;;
62724;SDS011;49026;52.600;4.694;2023-05-10T01:00:04;163.77;;;11.88;;
62724;SDS011;49026;52.600;4.694;2023-05-10T01:02:30;208.02;;;15.15;;
62724;SDS011;49026;52.600;4.694;2023-05-10T01:04:55;154.65;;;11.82;;
62724;SDS011;49026;52.600;4.694;2023-05-10T01:07:23;215.32;;;13.65;;
62724;SDS011;49026;52.600;4.694;2023-05-10T01:09:51;149.52;;;11.07;;
62724;SDS011;49026;52.600;4.694;2023-05-10T01:12:16;132.45;;;12.20;;
62724;SDS011;49026;52.600;4.694;2023-05-10T01:14:42;130.90;;;13.57;;
62724;SDS011;49026;52.600;4.694;2023-05-10T01:17:08;116.90;;;15.35;;
62724;SDS011;49026;52.600;4.694;2023-05-10T01:19:34;168.80;;;13.55;;
62724;SDS011;49026;52.600;4.694;2023-05-10T01:30:44;193.80;;;12.57;;
62724;SDS011;49026;52.600;4.694;2023-05-10T01:32:56;242.77;;;15.48;;
62724;SDS011;49026;52.600;4.694;2023-05-10T01:35:37;164.55;;;9.95;;
62724;SDS011;49026;52.600;4.694;2023-05-10T01:38:18;225.60;;;13.32;;
62724;SDS011;49026;52.600;4.694;2023-05-10T01:40:59;191.10;;;12.93;;
62724;SDS011;49026;52.600;4.694;2023-05-10T01:43:48;141.35;;;9.70;;
62724;SDS011;49026;52.600;4.694;2023-05-10T01:46:24;87.43;;;8.50;;
62724;SDS011;49026;52.600;4.694;2023-05-10T01:48:54;94.28;;;8.75;;
62724;SDS011;49026;52.600;4.694;2023-05-10T01:51:26;81.70;;;7.70;;
62724;SDS011;49026;52.600;4.694;2023-05-10T01:54:00;61.47;;;7.47;;
62724;SDS011;49026;52.600;4.694;2023-05-10T01:56:28;51.75;;;7.07;;
62724;SDS011;49026;52.600;4.694;2023-05-10T01:58:55;78.40;;;7.45;;
62724;SDS011;49026;52.600;4.694;2023-05-10T02:01:22;62.10;;;8.40;;
62724;SDS011;49026;52.600;4.694;2023-05-10T02:03:49;89.22;;;7.82;;
62724;SDS011;49026;52.600;4.694;2023-05-10T02:06:18;70.18;;;7.55;;
62724;SDS011;49026;52.600;4.694;2023-05-10T02:08:46;84.85;;;7.47;;
62724;SDS011;49026;52.600;4.694;2023-05-10T02:11:14;89.95;;;7.72;;
62724;SDS011;49026;52.600;4.694;2023-05-10T02:13:39;76.38;;;10.02;;
62724;SDS011;49026;52.600;4.694;2023-05-10T02:16:09;58.00;;;6.63;;
62724;SDS011;49026;52.600;4.694;2023-05-10T02:18:38;79.18;;;8.73;;
62724;SDS011;49026;52.600;4.694;2023-05-10T02:21:06;73.72;;;7.90;;
62724;SDS011;49026;52.600;4.694;2023-05-10T02:23:36;92.88;;;7.40;;
62724;SDS011;49026;52.600;4.694;2023-05-10T02:26:02;84.28;;;7.72;;
62724;SDS011;49026;52.600;4.694;2023-05-10T02:28:31;44.40;;;7.00;;
62724;SDS011;49026;52.600;4.694;2023-05-10T02:30:58;87.93;;;9.73;;
62724;SDS011;49026;52.600;4.694;2023-05-10T02:33:27;65.57;;;8.00;;
62724;SDS011;49026;52.600;4.694;2023-05-10T02:35:54;54.80;;;6.93;;
62724;SDS011;49026;52.600;4.694;2023-05-10T02:38:21;59.55;;;8.25;;
62724;SDS011;49026;52.600;4.694;2023-05-10T02:40:48;50.55;;;6.65;;
62724;SDS011;49026;52.600;4.694;2023-05-10T02:43:15;47.95;;;6.82;;
62724;SDS011;49026;52.600;4.694;2023-05-10T02:45:43;72.55;;;6.60;;
62724;SDS011;49026;52.600;4.694;2023-05-10T02:48:12;68.35;;;7.32;;
62724;SDS011;49026;52.600;4.694;2023-05-10T02:50:40;70.82;;;8.45;;
62724;SDS011;49026;52.600;4.694;2023-05-10T02:53:11;62.83;;;7.45;;
62724;SDS011;49026;52.600;4.694;2023-05-10T02:58:08;73.72;;;8.18;;
62724;SDS011;49026;52.600;4.694;2023-05-10T03:00:36;112.72;;;10.27;;
62724;SDS011;49026;52.600;4.694;2023-05-10T03:03:01;70.40;;;8.40;;
62724;SDS011;49026;52.600;4.694;2023-05-10T03:05:26;125.50;;;9.48;;
62724;SDS011;49026;52.600;4.694;2023-05-10T03:07:52;88.45;;;8.57;;
62724;SDS011;49026;52.600;4.694;2023-05-10T03:10:18;84.93;;;9.30;;
62724;SDS011;49026;52.600;4.694;2023-05-10T03:15:24;103.95;;;10.23;;
62724;SDS011;49026;52.600;4.694;2023-05-10T03:18:18;104.85;;;9.65;;
62724;SDS011;49026;52.600;4.694;2023-05-10T03:20:47;102.03;;;11.07;;
62724;SDS011;49026;52.600;4.694;2023-05-10T03:23:20;87.10;;;11.00;;
62724;SDS011;49026;52.600;4.694;2023-05-10T03:25:48;112.35;;;11.25;;
62724;SDS011;49026;52.600;4.694;2023-05-10T03:28:16;132.02;;;13.05;;
62724;SDS011;49026;52.600;4.694;2023-05-10T03:30:45;92.72;;;11.80;;
62724;SDS011;49026;52.600;4.694;2023-05-10T03:33:11;67.18;;;10.25;;
62724;SDS011;49026;52.600;4.694;2023-05-10T03:35:37;55.83;;;10.90;;
62724;SDS011;49026;52.600;4.694;2023-05-10T03:38:06;65.30;;;12.13;;
62724;SDS011;49026;52.600;4.694;2023-05-10T03:40:31;65.00;;;12.00;;
62724;SDS011;49026;52.600;4.694;2023-05-10T03:43:00;51.10;;;12.30;;
62724;SDS011;49026;52.600;4.694;2023-05-10T03:45:25;49.45;;;11.27;;
62724;SDS011;49026;52.600;4.694;2023-05-10T03:47:50;68.82;;;11.88;;
62724;SDS011;49026;52.600;4.694;2023-05-10T03:50:18;60.20;;;10.82;;
62724;SDS011;49026;52.600;4.694;2023-05-10T03:52:44;59.00;;;11.90;;
62724;SDS011;49026;52.600;4.694;2023-05-10T03:55:10;50.55;;;11.02;;
62724;SDS011;49026;52.600;4.694;2023-05-10T03:57:35;51.47;;;11.68;;
62724;SDS011;49026;52.600;4.694;2023-05-10T04:00:03;56.65;;;12.07;;
62724;SDS011;49026;52.600;4.694;2023-05-10T04:02:29;58.53;;;12.77;;
62724;SDS011;49026;52.600;4.694;2023-05-10T04:04:55;52.55;;;12.07;;
62724;SDS011;49026;52.600;4.694;2023-05-10T04:07:25;54.53;;;11.50;;
62724;SDS011;49026;52.600;4.694;2023-05-10T04:09:50;63.28;;;12.98;;
62724;SDS011;49026;52.600;4.694;2023-05-10T04:12:16;51.53;;;11.15;;
62724;SDS011;49026;52.600;4.694;2023-05-10T04:14:41;67.18;;;14.88;;
62724;SDS011;49026;52.600;4.694;2023-05-10T04:17:06;63.35;;;13.80;;
62724;SDS011;49026;52.600;4.694;2023-05-10T04:19:32;65.25;;;14.95;;
62724;SDS011;49026;52.600;4.694;2023-05-10T04:22:00;63.67;;;14.35;;
62724;SDS011;49026;52.600;4.694;2023-05-10T04:24:27;94.00;;;16.93;;
62724;SDS011;49026;52.600;4.694;2023-05-10T04:26:57;59.40;;;14.43;;
62724;SDS011;49026;52.600;4.694;2023-05-10T04:29:22;68.90;;;17.40;;
62724;SDS011;49026;52.600;4.694;2023-05-10T04:31:47;80.93;;;18.33;;
62724;SDS011;49026;52.600;4.694;2023-05-10T04:34:16;80.35;;;19.42;;
62724;SDS011;49026;52.600;4.694;2023-05-10T04:36:41;66.50;;;17.70;;
62724;SDS011;49026;52.600;4.694;2023-05-10T04:39:06;80.47;;;18.50;;
62724;SDS011;49026;52.600;4.694;2023-05-10T04:41:32;96.00;;;19.45;;
62724;SDS011;49026;52.600;4.694;2023-05-10T04:43:57;71.10;;;18.10;;
62724;SDS011;49026;52.600;4.694;2023-05-10T04:46:22;84.15;;;19.23;;
62724;SDS011;49026;52.600;4.694;2023-05-10T04:48:47;84.68;;;20.67;;
62724;SDS011;49026;52.600;4.694;2023-05-10T04:51:15;79.35;;;19.65;;
62724;SDS011;49026;52.600;4.694;2023-05-10T04:53:40;87.97;;;19.55;;
62724;SDS011;49026;52.600;4.694;2023-05-10T04:56:08;87.72;;;19.92;;
62724;SDS011;49026;52.600;4.694;2023-05-10T04:58:33;85.10;;;20.63;;
62724;SDS011;49026;52.600;4.694;2023-05-10T05:01:04;59.47;;;15.27;;
62724;SDS011;49026;52.600;4.694;2023-05-10T05:03:31;74.13;;;19.17;;
62724;SDS011;49026;52.600;4.694;2023-05-10T05:05:56;75.88;;;20.80;;
62724;SDS011;49026;52.600;4.694;2023-05-10T05:08:21;70.57;;;18.45;;
62724;SDS011;49026;52.600;4.694;2023-05-10T05:10:49;58.13;;;16.20;;
62724;SDS011;49026;52.600;4.694;2023-05-10T05:13:17;60.90;;;16.23;;
62724;SDS011;49026;52.600;4.694;2023-05-10T05:15:43;69.78;;;17.35;;
62724;SDS011;49026;52.600;4.694;2023-05-10T05:18:08;53.45;;;14.13;;
62724;SDS011;49026;52.600;4.694;2023-05-10T05:20:34;53.72;;;15.07;;
62724;SDS011;49026;52.600;4.694;2023-05-10T05:22:59;65.38;;;17.05;;
62724;SDS011;49026;52.600;4.694;2023-05-10T05:25:25;64.00;;;16.20;;
62724;SDS011;49026;52.600;4.694;2023-05-10T05:27:52;54.83;;;14.45;;
62724;SDS011;49026;52.600;4.694;2023-05-10T05:30:17;50.17;;;13.65;;
62724;SDS011;49026;52.600;4.694;2023-05-10T05:32:43;59.03;;;14.05;;
62724;SDS011;49026;52.600;4.694;2023-05-10T05:35:11;50.38;;;13.80;;
62724;SDS011;49026;52.600;4.694;2023-05-10T05:37:37;51.55;;;14.05;;
62724;SDS011;49026;52.600;4.694;2023-05-10T05:40:05;54.65;;;15.20;;
62724;SDS011;49026;52.600;4.694;2023-05-10T05:42:33;66.40;;;15.88;;
62724;SDS011;49026;52.600;4.694;2023-05-10T05:45:01;53.72;;;15.77;;
62724;SDS011;49026;52.600;4.694;2023-05-10T05:47:26;61.75;;;16.42;;
62724;SDS011;49026;52.600;4.694;2023-05-10T05:49:51;61.58;;;16.20;;
62724;SDS011;49026;52.600;4.694;2023-05-10T05:52:17;50.40;;;15.75;;
62724;SDS011;49026;52.600;4.694;2023-05-10T05:54:42;53.50;;;15.18;;
62724;SDS011;49026;52.600;4.694;2023-05-10T05:57:08;48.00;;;14.40;;
62724;SDS011;49026;52.600;4.694;2023-05-10T05:59:33;47.38;;;14.80;;
62724;SDS011;49026;52.600;4.694;2023-05-10T06:01:59;38.97;;;11.95;;
62724;SDS011;49026;52.600;4.694;2023-05-10T06:04:26;49.55;;;15.18;;
62724;SDS011;49026;52.600;4.694;2023-05-10T06:06:52;37.75;;;12.73;;
62724;SDS011;49026;52.600;4.694;2023-05-10T06:09:17;37.22;;;14.52;;
62724;SDS011;49026;52.600;4.694;2023-05-10T06:11:42;38.92;;;12.27;;
62724;SDS011;49026;52.600;4.694;2023-05-10T06:14:10;36.13;;;12.88;;
62724;SDS011;49026;52.600;4.694;2023-05-10T06:16:37;31.25;;;11.75;;
62724;SDS011;49026;52.600;4.694;2023-05-10T06:19:02;34.40;;;12.20;;
62724;SDS011;49026;52.600;4.694;2023-05-10T06:21:28;43.88;;;14.43;;
62724;SDS011;49026;52.600;4.694;2023-05-10T06:23:53;31.52;;;13.48;;
62724;SDS011;49026;52.600;4.694;2023-05-10T06:26:18;33.17;;;12.90;;
62724;SDS011;49026;52.600;4.694;2023-05-10T06:28:44;34.88;;;11.52;;
62724;SDS011;49026;52.600;4.694;2023-05-10T06:31:09;35.85;;;12.35;;
62724;SDS011;49026;52.600;4.694;2023-05-10T06:33:36;30.05;;;12.80;;
62724;SDS011;49026;52.600;4.694;2023-05-10T06:36:03;36.15;;;12.23;;
62724;SDS011;49026;52.600;4.694;2023-05-10T06:38:31;32.53;;;12.65;;
62724;SDS011;49026;52.600;4.694;2023-05-10T06:40:57;34.72;;;12.40;;
62724;SDS011;49026;52.600;4.694;2023-05-10T06:43:24;32.40;;;12.48;;
62724;SDS011;49026;52.600;4.694;2023-05-10T06:45:51;39.25;;;15.25;;
62724;SDS011;49026;52.600;4.694;2023-05-10T06:48:16;33.75;;;13.00;;
62724;SDS011;49026;52.600;4.694;2023-05-10T06:50:44;26.95;;;12.32;;
62724;SDS011;49026;52.600;4.694;2023-05-10T06:53:09;31.88;;;12.90;;
62724;SDS011;49026;52.600;4.694;2023-05-10T06:55:34;28.85;;;13.10;;
62724;SDS011;49026;52.600;4.694;2023-05-10T06:58:00;27.77;;;12.35;;
62724;SDS011;49026;52.600;4.694;2023-05-10T07:00:25;22.50;;;10.57;;
62724;SDS011;49026;52.600;4.694;2023-05-10T07:02:50;21.92;;;10.70;;
62724;SDS011;49026;52.600;4.694;2023-05-10T07:05:18;28.27;;;11.23;;
62724;SDS011;49026;52.600;4.694;2023-05-10T07:07:44;252.35;;;19.58;;
62724;SDS011;49026;52.600;4.694;2023-05-10T07:10:09;17.58;;;10.27;;
62724;SDS011;49026;52.600;4.694;2023-05-10T07:12:35;16.25;;;9.07;;
62724;SDS011;49026;52.600;4.694;2023-05-10T07:15:03;16.20;;;9.15;;
62724;SDS011;49026;52.600;4.694;2023-05-10T07:17:29;21.42;;;9.57;;
62724;SDS011;49026;52.600;4.694;2023-05-10T07:19:54;18.83;;;10.65;;
62724;SDS011;49026;52.600;4.694;2023-05-10T07:22:19;17.15;;;9.60;;
62724;SDS011;49026;52.600;4.694;2023-05-10T07:24:45;17.20;;;8.90;;
62724;SDS011;49026;52.600;4.694;2023-05-10T07:27:10;21.80;;;9.55;;
62724;SDS011;49026;52.600;4.694;2023-05-10T07:29:35;20.83;;;9.65;;
62724;SDS011;49026;52.600;4.694;2023-05-10T07:32:01;14.43;;;9.20;;
62724;SDS011;49026;52.600;4.694;2023-05-10T07:34:26;18.20;;;10.45;;
62724;SDS011;49026;52.600;4.694;2023-05-10T07:36:52;15.95;;;9.32;;
62724;SDS011;49026;52.600;4.694;2023-05-10T07:39:18;19.80;;;10.32;;
62724;SDS011;49026;52.600;4.694;2023-05-10T07:41:43;17.15;;;10.10;;
62724;SDS011;49026;52.600;4.694;2023-05-10T07:44:08;16.48;;;8.85;;
62724;SDS011;49026;52.600;4.694;2023-05-10T07:46:33;17.60;;;9.18;;
62724;SDS011;49026;52.600;4.694;2023-05-10T07:48:59;19.10;;;10.05;;
62724;SDS011;49026;52.600;4.694;2023-05-10T07:51:24;16.70;;;9.23;;
62724;SDS011;49026;52.600;4.694;2023-05-10T07:53:52;13.30;;;8.48;;
62724;SDS011;49026;52.600;4.694;2023-05-10T07:56:24;15.07;;;9.35;;
62724;SDS011;49026;52.600;4.694;2023-05-10T07:58:54;16.10;;;8.85;;
62724;SDS011;49026;52.600;4.694;2023-05-10T08:01:20;15.75;;;9.52;;
62724;SDS011;49026;52.600;4.694;2023-05-10T08:03:46;17.83;;;8.50;;
62724;SDS011;49026;52.600;4.694;2023-05-10T08:06:11;13.27;;;7.13;;
62724;SDS011;49026;52.600;4.694;2023-05-10T08:08:37;12.93;;;7.70;;
62724;SDS011;49026;52.600;4.694;2023-05-10T08:11:04;11.35;;;6.20;;
62724;SDS011;49026;52.600;4.694;2023-05-10T08:15:59;12.32;;;6.88;;
62724;SDS011;49026;52.600;4.694;2023-05-10T08:18:25;13.02;;;6.63;;
62724;SDS011;49026;52.600;4.694;2023-05-10T08:20:50;13.68;;;7.72;;
62724;SDS011;49026;52.600;4.694;2023-05-10T08:23:18;14.57;;;8.18;;
62724;SDS011;49026;52.600;4.694;2023-05-10T08:25:43;11.65;;;7.22;;
62724;SDS011;49026;52.600;4.694;2023-05-10T08:28:08;172.63;;;13.05;;
62724;SDS011;49026;52.600;4.694;2023-05-10T08:30:34;12.65;;;7.63;;
62724;SDS011;49026;52.600;4.694;2023-05-10T08:32:59;11.98;;;7.95;;
62724;SDS011;49026;52.600;4.694;2023-05-10T08:35:32;17.23;;;8.90;;
62724;SDS011;49026;52.600;4.694;2023-05-10T08:37:58;12.48;;;8.27;;
62724;SDS011;49026;52.600;4.694;2023-05-10T08:40:23;16.25;;;9.05;;
62724;SDS011;49026;52.600;4.694;2023-05-10T08:42:57;15.50;;;9.27;;
62724;SDS011;49026;52.600;4.694;2023-05-10T08:45:27;15.50;;;9.18;;
62724;SDS011;49026;52.600;4.694;2023-05-10T08:47:58;16.73;;;9.15;;
62724;SDS011;49026;52.600;4.694;2023-05-10T08:50:26;18.08;;;9.63;;
62724;SDS011;49026;52.600;4.694;2023-05-10T08:52:52;17.75;;;10.10;;
62724;SDS011;49026;52.600;4.694;2023-05-10T08:55:20;105.95;;;12.75;;
62724;SDS011;49026;52.600;4.694;2023-05-10T08:57:48;19.33;;;11.02;;
62724;SDS011;49026;52.600;4.694;2023-05-10T09:00:16;16.67;;;10.20;;
62724;SDS011;49026;52.600;4.694;2023-05-10T09:02:43;21.88;;;10.35;;
62724;SDS011;49026;52.600;4.694;2023-05-10T09:05:10;16.15;;;8.23;;
62724;SDS011;49026;52.600;4.694;2023-05-10T09:07:36;20.27;;;10.23;;
62724;SDS011;49026;52.600;4.694;2023-05-10T09:10:01;17.65;;;9.45;;
62724;SDS011;49026;52.600;4.694;2023-05-10T09:12:27;16.02;;;8.98;;
62724;SDS011;49026;52.600;4.694;2023-05-10T09:14:53;17.13;;;9.10;;
62724;SDS011;49026;52.600;4.694;2023-05-10T09:17:21;16.20;;;8.70;;
62724;SDS011;49026;52.600;4.694;2023-05-10T09:19:56;14.63;;;9.93;;
62724;SDS011;49026;52.600;4.694;2023-05-10T09:22:30;16.20;;;9.98;;
62724;SDS011;49026;52.600;4.694;2023-05-10T09:27:31;17.23;;;10.23;;
62724;SDS011;49026;52.600;4.694;2023-05-10T09:29:56;15.20;;;9.48;;
62724;SDS011;49026;52.600;4.694;2023-05-10T09:32:41;12.95;;;8.13;;
62724;SDS011;49026;52.600;4.694;2023-05-10T09:35:08;13.95;;;8.43;;
62724;SDS011;49026;52.600;4.694;2023-05-10T09:37:41;11.48;;;7.60;;
62724;SDS011;49026;52.600;4.694;2023-05-10T09:40:11;16.55;;;9.38;;
62724;SDS011;49026;52.600;4.694;2023-05-10T09:42:38;15.70;;;8.77;;
62724;SDS011;49026;52.600;4.694;2023-05-10T09:45:05;15.93;;;8.68;;
62724;SDS011;49026;52.600;4.694;2023-05-10T09:47:32;17.77;;;9.27;;
62724;SDS011;49026;52.600;4.694;2023-05-10T09:49:59;17.10;;;9.10;;
62724;SDS011;49026;52.600;4.694;2023-05-10T09:52:28;19.08;;;11.27;;
62724;SDS011;49026;52.600;4.694;2023-05-10T09:54:54;15.07;;;8.60;;
62724;SDS011;49026;52.600;4.694;2023-05-10T09:57:22;56.97;;;9.80;;
62724;SDS011;49026;52.600;4.694;2023-05-10T09:59:49;17.48;;;9.23;;
62724;SDS011;49026;52.600;4.694;2023-05-10T10:02:27;121.63;;;12.77;;
62724;SDS011;49026;52.600;4.694;2023-05-10T10:04:54;19.77;;;9.98;;
62724;SDS011;49026;52.600;4.694;2023-05-10T10:07:22;16.15;;;8.52;;
62724;SDS011;49026;52.600;4.694;2023-05-10T10:09:48;21.75;;;10.90;;
62724;SDS011;49026;52.600;4.694;2023-05-10T10:12:14;21.77;;;11.55;;
62724;SDS011;49026;52.600;4.694;2023-05-10T10:14:39;20.52;;;11.23;;
62724;SDS011;49026;52.600;4.694;2023-05-10T10:17:05;20.70;;;10.23;;
62724;SDS011;49026;52.600;4.694;2023-05-10T10:19:32;21.77;;;11.52;;
62724;SDS011;49026;52.600;4.694;2023-05-10T10:22:00;19.63;;;9.80;;
62724;SDS011;49026;52.600;4.694;2023-05-10T10:24:26;19.88;;;10.85;;
62724;SDS011;49026;52.600;4.694;2023-05-10T10:26:54;24.77;;;11.65;;
62724;SDS011;49026;52.600;4.694;2023-05-10T10:35:14;17.80;;;9.75;;
62724;SDS011;49026;52.600;4.694;2023-05-10T10:37:42;24.13;;;11.07;;
62724;SDS011;49026;52.600;4.694;2023-05-10T10:40:30;19.90;;;10.75;;
62724;SDS011;49026;52.600;4.694;2023-05-10T10:46:10;20.92;;;10.63;;
62724;SDS011;49026;52.600;4.694;2023-05-10T10:48:48;18.23;;;10.20;;
62724;SDS011;49026;52.600;4.694;2023-05-10T10:51:16;17.10;;;9.50;;
62724;SDS011;49026;52.600;4.694;2023-05-10T10:53:44;18.23;;;9.52;;
62724;SDS011;49026;52.600;4.694;2023-05-10T10:56:13;12.20;;;7.35;;
62724;SDS011;49026;52.600;4.694;2023-05-10T10:58:49;14.57;;;8.13;;
62724;SDS011;49026;52.600;4.694;2023-05-10T11:06:32;14.52;;;8.60;;
62724;SDS011;49026;52.600;4.694;2023-05-10T11:09:04;13.73;;;8.13;;
62724;SDS011;49026;52.600;4.694;2023-05-10T11:11:34;14.23;;;8.48;;
62724;SDS011;49026;52.600;4.694;2023-05-10T11:14:03;14.07;;;8.27;;
62724;SDS011;49026;52.600;4.694;2023-05-10T11:16:40;12.32;;;8.10;;
62724;SDS011;49026;52.600;4.694;2023-05-10T11:19:09;13.85;;;7.93;;
62724;SDS011;49026;52.600;4.694;2023-05-10T11:21:44;13.40;;;8.00;;
62724;SDS011;49026;52.600;4.694;2023-05-10T11:27:04;12.63;;;6.22;;
62724;SDS011;49026;52.600;4.694;2023-05-10T11:29:33;8.57;;;5.30;;
62724;SDS011;49026;52.600;4.694;2023-05-10T11:31:59;9.60;;;5.75;;
62724;SDS011;49026;52.600;4.694;2023-05-10T11:34:28;8.65;;;5.70;;
62724;SDS011;49026;52.600;4.694;2023-05-10T11:36:55;8.77;;;6.05;;
62724;SDS011;49026;52.600;4.694;2023-05-10T11:39:25;8.25;;;5.28;;
62724;SDS011;49026;52.600;4.694;2023-05-10T11:41:51;10.95;;;6.05;;
62724;SDS011;49026;52.600;4.694;2023-05-10T11:44:19;9.85;;;7.07;;
62724;SDS011;49026;52.600;4.694;2023-05-10T11:46:45;10.60;;;5.97;;
62724;SDS011;49026;52.600;4.694;2023-05-10T11:49:10;10.25;;;6.50;;
62724;SDS011;49026;52.600;4.694;2023-05-10T11:51:38;8.10;;;5.63;;
62724;SDS011;49026;52.600;4.694;2023-05-10T11:54:08;8.48;;;5.28;;
62724;SDS011;49026;52.600;4.694;2023-05-10T11:56:35;8.52;;;5.65;;
62724;SDS011;49026;52.600;4.694;2023-05-10T11:59:01;9.00;;;5.57;;
62724;SDS011;49026;52.600;4.694;2023-05-10T12:01:30;7.75;;;5.35;;
62724;SDS011;49026;52.600;4.694;2023-05-10T12:03:56;6.68;;;4.57;;
62724;SDS011;49026;52.600;4.694;2023-05-10T12:06:28;7.32;;;5.43;;
62724;SDS011;49026;52.600;4.694;2023-05-10T12:08:55;6.97;;;4.82;;
62724;SDS011;49026;52.600;4.694;2023-05-10T12:11:24;6.85;;;5.03;;
62724;SDS011;49026;52.600;4.694;2023-05-10T12:13:50;6.90;;;4.80;;
62724;SDS011;49026;52.600;4.694;2023-05-10T12:16:20;9.07;;;4.82;;
62724;SDS011;49026;52.600;4.694;2023-05-10T12:18:50;9.18;;;6.03;;
62724;SDS011;49026;52.600;4.694;2023-05-10T12:21:17;8.23;;;5.00;;
62724;SDS011;49026;52.600;4.694;2023-05-10T12:23:45;8.15;;;5.32;;
62724;SDS011;49026;52.600;4.694;2023-05-10T12:26:11;11.00;;;5.53;;
62724;SDS011;49026;52.600;4.694;2023-05-10T12:28:37;6.85;;;5.20;;
62724;SDS011;49026;52.600;4.694;2023-05-10T12:31:03;6.60;;;4.65;;
62724;SDS011;49026;52.600;4.694;2023-05-10T12:33:37;8.90;;;5.20;;
62724;SDS011;49026;52.600;4.694;2023-05-10T12:36:09;7.68;;;5.90;;
62724;SDS011;49026;52.600;4.694;2023-05-10T12:38:39;7.50;;;5.53;;
62724;SDS011;49026;52.600;4.694;2023-05-10T12:41:10;7.68;;;5.68;;
62724;SDS011;49026;52.600;4.694;2023-05-10T12:43:39;8.15;;;6.35;;
62724;SDS011;49026;52.600;4.694;2023-05-10T12:46:10;9.02;;;6.20;;
62724;SDS011;49026;52.600;4.694;2023-05-10T12:48:37;7.28;;;4.85;;
62724;SDS011;49026;52.600;4.694;2023-05-10T12:51:06;8.05;;;5.70;;
62724;SDS011;49026;52.600;4.694;2023-05-10T12:53:36;6.88;;;5.10;;
62724;SDS011;49026;52.600;4.694;2023-05-10T12:56:02;7.78;;;5.03;;
62724;SDS011;49026;52.600;4.694;2023-05-10T12:58:27;6.65;;;4.68;;
62724;SDS011;49026;52.600;4.694;2023-05-10T13:00:55;6.60;;;4.78;;
62724;SDS011;49026;52.600;4.694;2023-05-10T13:03:21;8.68;;;5.80;;
62724;SDS011;49026;52.600;4.694;2023-05-10T13:05:47;7.72;;;5.50;;
62724;SDS011;49026;52.600;4.694;2023-05-10T13:08:12;8.27;;;5.13;;
62724;SDS011;49026;52.600;4.694;2023-05-10T13:10:37;8.63;;;5.20;;
62724;SDS011;49026;52.600;4.694;2023-05-10T13:13:03;8.75;;;5.35;;
62724;SDS011;49026;52.600;4.694;2023-05-10T13:15:28;9.18;;;6.00;;
62724;SDS011;49026;52.600;4.694;2023-05-10T13:17:53;8.20;;;5.00;;
62724;SDS011;49026;52.600;4.694;2023-05-10T13:20:21;8.70;;;5.47;;
62724;SDS011;49026;52.600;4.694;2023-05-10T13:22:47;8.63;;;5.97;;
62724;SDS011;49026;52.600;4.694;2023-05-10T13:25:12;8.45;;;5.38;;
62724;SDS011;49026;52.600;4.694;2023-05-10T13:27:43;9.10;;;5.80;;
62724;SDS011;49026;52.600;4.694;2023-05-10T13:30:09;6.90;;;4.22;;
62724;SDS011;49026;52.600;4.694;2023-05-10T13:32:34;6.82;;;3.78;;
62724;SDS011;49026;52.600;4.694;2023-05-10T13:35:00;6.55;;;4.18;;
62724;SDS011;49026;52.600;4.694;2023-05-10T13:37:30;7.00;;;4.18;;
62724;SDS011;49026;52.600;4.694;2023-05-10T13:39:56;6.97;;;3.67;;
62724;SDS011;49026;52.600;4.694;2023-05-10T13:42:22;5.45;;;3.78;;
62724;SDS011;49026;52.600;4.694;2023-05-10T13:44:48;5.15;;;3.42;;
62724;SDS011;49026;52.600;4.694;2023-05-10T13:47:15;5.43;;;3.70;;
62724;SDS011;49026;52.600;4.694;2023-05-10T13:49:41;4.65;;;3.35;;
62724;SDS011;49026;52.600;4.694;2023-05-10T13:52:06;6.05;;;3.72;;
62724;SDS011;49026;52.600;4.694;2023-05-10T13:54:41;5.10;;;3.47;;
62724;SDS011;49026;52.600;4.694;2023-05-10T13:57:06;5.18;;;3.40;;
62724;SDS011;49026;52.600;4.694;2023-05-10T13:59:32;4.93;;;3.30;;
62724;SDS011;49026;52.600;4.694;2023-05-10T14:02:02;6.07;;;3.53;;
62724;SDS011;49026;52.600;4.694;2023-05-10T14:04:27;5.15;;;3.40;;
62724;SDS011;49026;52.600;4.694;2023-05-10T14:06:55;7.28;;;3.72;;
62724;SDS011;49026;52.600;4.694;2023-05-10T14:09:24;5.45;;;3.45;;
62724;SDS011;49026;52.600;4.694;2023-05-10T14:11:52;6.18;;;3.88;;
62724;SDS011;49026;52.600;4.694;2023-05-10T14:14:17;5.32;;;3.47;;
62724;SDS011;49026;52.600;4.694;2023-05-10T14:16:43;5.60;;;3.33;;
62724;SDS011;49026;52.600;4.694;2023-05-10T14:19:09;4.47;;;2.70;;
62724;SDS011;49026;52.600;4.694;2023-05-10T14:21:34;5.20;;;3.58;;
62724;SDS011;49026;52.600;4.694;2023-05-10T14:24:03;5.60;;;3.58;;
62724;SDS011;49026;52.600;4.694;2023-05-10T14:26:28;5.75;;;3.40;;
62724;SDS011;49026;52.600;4.694;2023-05-10T14:28:54;6.32;;;3.75;;
62724;SDS011;49026;52.600;4.694;2023-05-10T14:31:19;13.82;;;3.83;;
62724;SDS011;49026;52.600;4.694;2023-05-10T14:33:45;4.78;;;3.47;;
62724;SDS011;49026;52.600;4.694;2023-05-10T14:36:11;5.90;;;3.60;;
62724;SDS011;49026;52.600;4.694;2023-05-10T14:38:37;4.55;;;3.00;;
62724;SDS011;49026;52.600;4.694;2023-05-10T14:41:02;5.75;;;3.55;;
62724;SDS011;49026;52.600;4.694;2023-05-10T14:43:28;4.53;;;3.28;;
62724;SDS011;49026;52.600;4.694;2023-05-10T14:45:53;5.05;;;3.40;;
62724;SDS011;49026;52.600;4.694;2023-05-10T14:48:18;7.18;;;3.83;;
62724;SDS011;49026;52.600;4.694;2023-05-10T14:50:44;6.57;;;4.53;;
62724;SDS011;49026;52.600;4.694;2023-05-10T14:53:10;5.45;;;3.70;;
62724;SDS011;49026;52.600;4.694;2023-05-10T14:55:38;7.55;;;4.50;;
62724;SDS011;49026;52.600;4.694;2023-05-10T14:58:04;6.80;;;4.63;;
62724;SDS011;49026;52.600;4.694;2023-05-10T15:00:31;7.10;;;4.70;;
62724;SDS011;49026;52.600;4.694;2023-05-10T15:02:57;6.70;;;4.38;;
62724;SDS011;49026;52.600;4.694;2023-05-10T15:05:22;7.47;;;4.65;;
62724;SDS011;49026;52.600;4.694;2023-05-10T15:07:50;6.35;;;4.13;;